sensor_id;sensor_type;location;lat;lon;timestamp;P1;durP1;ratioP1;P2;durP2;ratioP2
68379;SDS011;57711;53.196;19.638;2023-04-08T00:01:00;39.50;;;16.80;;
68379;SDS011;57711;53.196;19.638;2023-04-08T00:03:27;42.90;;;16.90;;
68379;SDS011;57711;53.196;19.638;2023-04-08T00:05:55;35.80;;;16.00;;
68379;SDS011;57711;53.196;19.638;2023-04-08T00:08:22;32.80;;;15.60;;
68379;SDS011;57711;53.196;19.638;2023-04-08T00:10:49;36.50;;;16.60;;
68379;SDS011;57711;53.196;19.638;2023-04-08T00:13:16;42.70;;;19.30;;
68379;SDS011;57711;53.196;19.638;2023-04-08T00:15:44;40.90;;;20.80;;
68379;SDS011;57711;53.196;19.638;2023-04-08T00:18:12;45.50;;;23.00;;
68379;SDS011;57711;53.196;19.638;2023-04-08T00:20:41;40.50;;;20.80;;
68379;SDS011;57711;53.196;19.638;2023-04-08T00:23:09;46.70;;;22.70;;
68379;SDS011;57711;53.196;19.638;2023-04-08T00:25:36;39.10;;;19.20;;
68379;SDS011;57711;53.196;19.638;2023-04-08T00:28:03;38.90;;;18.90;;
68379;SDS011;57711;53.196;19.638;2023-04-08T00:30:30;28.50;;;16.20;;
68379;SDS011;57711;53.196;19.638;2023-04-08T00:32:58;37.00;;;18.80;;
68379;SDS011;57711;53.196;19.638;2023-04-08T00:35:25;39.90;;;19.50;;
68379;SDS011;57711;53.196;19.638;2023-04-08T00:37:52;50.80;;;24.20;;
68379;SDS011;57711;53.196;19.638;2023-04-08T00:40:19;42.50;;;21.80;;
68379;SDS011;57711;53.196;19.638;2023-04-08T00:42:46;43.10;;;24.60;;
68379;SDS011;57711;53.196;19.638;2023-04-08T00:45:14;42.90;;;25.40;;
68379;SDS011;57711;53.196;19.638;2023-04-08T00:47:41;39.20;;;22.70;;
68379;SDS011;57711;53.196;19.638;2023-04-08T00:50:09;35.80;;;19.90;;
68379;SDS011;57711;53.196;19.638;2023-04-08T00:52:37;31.90;;;17.50;;
68379;SDS011;57711;53.196;19.638;2023-04-08T00:55:05;25.20;;;14.90;;
68379;SDS011;57711;53.196;19.638;2023-04-08T00:57:32;23.90;;;13.30;;
68379;SDS011;57711;53.196;19.638;2023-04-08T00:59:59;20.20;;;12.60;;
68379;SDS011;57711;53.196;19.638;2023-04-08T01:02:30;17.30;;;11.30;;
68379;SDS011;57711;53.196;19.638;2023-04-08T01:05:06;17.00;;;11.30;;
68379;SDS011;57711;53.196;19.638;2023-04-08T01:07:48;16.10;;;10.80;;
68379;SDS011;57711;53.196;19.638;2023-04-08T01:10:17;16.00;;;9.30;;
68379;SDS011;57711;53.196;19.638;2023-04-08T01:12:53;12.30;;;8.70;;
68379;SDS011;57711;53.196;19.638;2023-04-08T01:15:25;14.50;;;9.40;;
68379;SDS011;57711;53.196;19.638;2023-04-08T01:17:54;15.60;;;9.30;;
68379;SDS011;57711;53.196;19.638;2023-04-08T01:20:23;14.40;;;9.60;;
68379;SDS011;57711;53.196;19.638;2023-04-08T01:25:48;14.00;;;9.40;;
68379;SDS011;57711;53.196;19.638;2023-04-08T01:28:17;15.90;;;11.20;;
68379;SDS011;57711;53.196;19.638;2023-04-08T01:30:47;18.00;;;11.00;;
68379;SDS011;57711;53.196;19.638;2023-04-08T01:33:16;17.70;;;11.40;;
68379;SDS011;57711;53.196;19.638;2023-04-08T01:35:45;15.00;;;9.90;;
68379;SDS011;57711;53.196;19.638;2023-04-08T01:38:16;14.40;;;9.70;;
68379;SDS011;57711;53.196;19.638;2023-04-08T01:40:47;11.70;;;9.60;;
68379;SDS011;57711;53.196;19.638;2023-04-08T01:43:16;15.50;;;10.60;;
68379;SDS011;57711;53.196;19.638;2023-04-08T01:45:45;14.90;;;10.30;;
68379;SDS011;57711;53.196;19.638;2023-04-08T01:48:13;15.80;;;11.00;;
68379;SDS011;57711;53.196;19.638;2023-04-08T01:50:42;19.20;;;11.60;;
68379;SDS011;57711;53.196;19.638;2023-04-08T01:53:12;14.00;;;9.50;;
68379;SDS011;57711;53.196;19.638;2023-04-08T01:55:39;14.20;;;9.70;;
68379;SDS011;57711;53.196;19.638;2023-04-08T01:58:13;10.00;;;8.60;;
68379;SDS011;57711;53.196;19.638;2023-04-08T02:00:46;11.20;;;8.70;;
68379;SDS011;57711;53.196;19.638;2023-04-08T02:03:15;13.00;;;9.10;;
68379;SDS011;57711;53.196;19.638;2023-04-08T02:05:45;15.90;;;9.80;;
68379;SDS011;57711;53.196;19.638;2023-04-08T02:08:12;14.10;;;8.90;;
68379;SDS011;57711;53.196;19.638;2023-04-08T02:10:39;18.50;;;11.70;;
68379;SDS011;57711;53.196;19.638;2023-04-08T02:13:06;21.30;;;15.00;;
68379;SDS011;57711;53.196;19.638;2023-04-08T02:15:35;23.30;;;15.60;;
68379;SDS011;57711;53.196;19.638;2023-04-08T02:18:08;24.40;;;15.90;;
68379;SDS011;57711;53.196;19.638;2023-04-08T02:20:42;24.80;;;15.70;;
68379;SDS011;57711;53.196;19.638;2023-04-08T02:23:17;22.50;;;15.00;;
68379;SDS011;57711;53.196;19.638;2023-04-08T02:25:46;21.60;;;14.90;;
68379;SDS011;57711;53.196;19.638;2023-04-08T02:28:14;27.10;;;17.00;;
68379;SDS011;57711;53.196;19.638;2023-04-08T02:30:47;27.80;;;18.40;;
68379;SDS011;57711;53.196;19.638;2023-04-08T02:33:20;25.40;;;15.50;;
68379;SDS011;57711;53.196;19.638;2023-04-08T02:35:50;22.50;;;13.00;;
68379;SDS011;57711;53.196;19.638;2023-04-08T02:38:21;23.70;;;14.40;;
68379;SDS011;57711;53.196;19.638;2023-04-08T02:40:50;23.80;;;13.20;;
68379;SDS011;57711;53.196;19.638;2023-04-08T02:43:17;52.00;;;29.00;;
68379;SDS011;57711;53.196;19.638;2023-04-08T02:45:44;35.20;;;23.30;;
68379;SDS011;57711;53.196;19.638;2023-04-08T02:48:13;44.30;;;21.70;;
68379;SDS011;57711;53.196;19.638;2023-04-08T02:50:41;46.90;;;21.50;;
68379;SDS011;57711;53.196;19.638;2023-04-08T02:53:08;98.00;;;33.30;;
68379;SDS011;57711;53.196;19.638;2023-04-08T02:55:35;97.50;;;33.60;;
68379;SDS011;57711;53.196;19.638;2023-04-08T02:58:02;69.30;;;25.10;;
68379;SDS011;57711;53.196;19.638;2023-04-08T03:00:30;53.30;;;21.70;;
68379;SDS011;57711;53.196;19.638;2023-04-08T03:02:57;44.20;;;17.70;;
68379;SDS011;57711;53.196;19.638;2023-04-08T03:05:25;65.10;;;25.90;;
68379;SDS011;57711;53.196;19.638;2023-04-08T03:07:52;42.00;;;19.00;;
68379;SDS011;57711;53.196;19.638;2023-04-08T03:10:19;31.50;;;15.30;;
68379;SDS011;57711;53.196;19.638;2023-04-08T03:12:46;26.80;;;14.50;;
68379;SDS011;57711;53.196;19.638;2023-04-08T03:15:14;25.00;;;14.20;;
68379;SDS011;57711;53.196;19.638;2023-04-08T03:17:41;21.20;;;13.50;;
68379;SDS011;57711;53.196;19.638;2023-04-08T03:20:08;28.30;;;15.60;;
68379;SDS011;57711;53.196;19.638;2023-04-08T03:22:36;22.60;;;12.70;;
68379;SDS011;57711;53.196;19.638;2023-04-08T03:25:03;20.70;;;13.30;;
68379;SDS011;57711;53.196;19.638;2023-04-08T03:27:31;24.50;;;14.30;;
68379;SDS011;57711;53.196;19.638;2023-04-08T03:29:58;20.10;;;12.10;;
68379;SDS011;57711;53.196;19.638;2023-04-08T03:32:25;22.30;;;13.90;;
68379;SDS011;57711;53.196;19.638;2023-04-08T03:34:52;34.20;;;16.90;;
68379;SDS011;57711;53.196;19.638;2023-04-08T03:37:20;28.70;;;14.80;;
68379;SDS011;57711;53.196;19.638;2023-04-08T03:39:47;18.90;;;12.70;;
68379;SDS011;57711;53.196;19.638;2023-04-08T03:42:14;29.50;;;15.00;;
68379;SDS011;57711;53.196;19.638;2023-04-08T03:44:41;42.50;;;20.80;;
68379;SDS011;57711;53.196;19.638;2023-04-08T03:47:08;34.80;;;18.80;;
68379;SDS011;57711;53.196;19.638;2023-04-08T03:49:35;32.60;;;18.10;;
68379;SDS011;57711;53.196;19.638;2023-04-08T03:52:03;33.60;;;18.40;;
68379;SDS011;57711;53.196;19.638;2023-04-08T03:54:30;39.90;;;21.10;;
68379;SDS011;57711;53.196;19.638;2023-04-08T03:56:57;36.50;;;20.20;;
68379;SDS011;57711;53.196;19.638;2023-04-08T03:59:24;34.10;;;19.80;;
68379;SDS011;57711;53.196;19.638;2023-04-08T04:01:51;32.50;;;18.70;;
68379;SDS011;57711;53.196;19.638;2023-04-08T04:04:19;30.20;;;17.30;;
68379;SDS011;57711;53.196;19.638;2023-04-08T04:06:47;25.70;;;16.30;;
68379;SDS011;57711;53.196;19.638;2023-04-08T04:09:14;22.30;;;15.80;;
68379;SDS011;57711;53.196;19.638;2023-04-08T04:11:42;21.40;;;15.70;;
68379;SDS011;57711;53.196;19.638;2023-04-08T04:14:09;22.60;;;15.40;;
68379;SDS011;57711;53.196;19.638;2023-04-08T04:16:37;21.40;;;15.40;;
68379;SDS011;57711;53.196;19.638;2023-04-08T04:19:04;26.00;;;17.00;;
68379;SDS011;57711;53.196;19.638;2023-04-08T04:21:31;28.20;;;19.40;;
68379;SDS011;57711;53.196;19.638;2023-04-08T04:23:58;28.70;;;18.70;;
68379;SDS011;57711;53.196;19.638;2023-04-08T04:26:25;26.30;;;17.90;;
68379;SDS011;57711;53.196;19.638;2023-04-08T04:28:52;22.40;;;15.40;;
68379;SDS011;57711;53.196;19.638;2023-04-08T04:31:20;25.10;;;15.10;;
68379;SDS011;57711;53.196;19.638;2023-04-08T04:33:48;22.00;;;14.60;;
68379;SDS011;57711;53.196;19.638;2023-04-08T04:36:16;25.90;;;15.10;;
68379;SDS011;57711;53.196;19.638;2023-04-08T04:38:43;26.70;;;17.30;;
68379;SDS011;57711;53.196;19.638;2023-04-08T04:41:10;27.20;;;19.20;;
68379;SDS011;57711;53.196;19.638;2023-04-08T04:43:38;29.10;;;18.10;;
68379;SDS011;57711;53.196;19.638;2023-04-08T04:46:05;22.60;;;15.70;;
68379;SDS011;57711;53.196;19.638;2023-04-08T04:48:34;19.00;;;14.50;;
68379;SDS011;57711;53.196;19.638;2023-04-08T04:51:02;17.80;;;13.00;;
68379;SDS011;57711;53.196;19.638;2023-04-08T04:53:29;18.60;;;12.50;;
68379;SDS011;57711;53.196;19.638;2023-04-08T04:55:57;15.50;;;12.10;;
68379;SDS011;57711;53.196;19.638;2023-04-08T04:58:27;14.50;;;11.20;;
68379;SDS011;57711;53.196;19.638;2023-04-08T05:00:54;16.80;;;11.60;;
68379;SDS011;57711;53.196;19.638;2023-04-08T05:03:22;16.30;;;11.10;;
68379;SDS011;57711;53.196;19.638;2023-04-08T05:05:50;23.60;;;16.10;;
68379;SDS011;57711;53.196;19.638;2023-04-08T05:08:18;31.40;;;20.70;;
68379;SDS011;57711;53.196;19.638;2023-04-08T05:10:46;32.50;;;21.70;;
68379;SDS011;57711;53.196;19.638;2023-04-08T05:13:16;27.00;;;18.70;;
68379;SDS011;57711;53.196;19.638;2023-04-08T05:15:57;37.20;;;20.80;;
68379;SDS011;57711;53.196;19.638;2023-04-08T05:18:24;38.80;;;22.30;;
68379;SDS011;57711;53.196;19.638;2023-04-08T05:20:51;41.90;;;23.50;;
68379;SDS011;57711;53.196;19.638;2023-04-08T05:23:18;40.50;;;22.20;;
68379;SDS011;57711;53.196;19.638;2023-04-08T05:25:45;36.50;;;21.10;;
68379;SDS011;57711;53.196;19.638;2023-04-08T05:28:12;33.80;;;19.00;;
68379;SDS011;57711;53.196;19.638;2023-04-08T05:30:40;30.00;;;18.60;;
68379;SDS011;57711;53.196;19.638;2023-04-08T05:33:07;30.60;;;18.00;;
68379;SDS011;57711;53.196;19.638;2023-04-08T05:35:34;28.60;;;18.70;;
68379;SDS011;57711;53.196;19.638;2023-04-08T05:38:02;30.00;;;18.40;;
68379;SDS011;57711;53.196;19.638;2023-04-08T05:40:29;29.90;;;19.40;;
68379;SDS011;57711;53.196;19.638;2023-04-08T05:42:56;23.40;;;16.90;;
68379;SDS011;57711;53.196;19.638;2023-04-08T05:45:23;23.00;;;15.60;;
68379;SDS011;57711;53.196;19.638;2023-04-08T05:47:50;24.70;;;16.40;;
68379;SDS011;57711;53.196;19.638;2023-04-08T05:50:17;25.50;;;17.50;;
68379;SDS011;57711;53.196;19.638;2023-04-08T05:52:44;29.30;;;19.20;;
68379;SDS011;57711;53.196;19.638;2023-04-08T05:55:12;26.00;;;17.80;;
68379;SDS011;57711;53.196;19.638;2023-04-08T05:57:40;25.20;;;17.10;;
68379;SDS011;57711;53.196;19.638;2023-04-08T06:00:08;23.40;;;16.60;;
68379;SDS011;57711;53.196;19.638;2023-04-08T06:02:36;40.00;;;23.10;;
68379;SDS011;57711;53.196;19.638;2023-04-08T06:05:05;36.00;;;19.80;;
68379;SDS011;57711;53.196;19.638;2023-04-08T06:07:32;23.00;;;14.70;;
68379;SDS011;57711;53.196;19.638;2023-04-08T06:10:00;22.30;;;13.50;;
68379;SDS011;57711;53.196;19.638;2023-04-08T06:12:27;24.90;;;16.80;;
68379;SDS011;57711;53.196;19.638;2023-04-08T06:14:55;21.00;;;14.10;;
68379;SDS011;57711;53.196;19.638;2023-04-08T06:17:23;20.30;;;14.60;;
68379;SDS011;57711;53.196;19.638;2023-04-08T06:19:50;19.70;;;13.30;;
68379;SDS011;57711;53.196;19.638;2023-04-08T06:22:17;17.40;;;12.10;;
68379;SDS011;57711;53.196;19.638;2023-04-08T06:24:46;40.40;;;22.50;;
68379;SDS011;57711;53.196;19.638;2023-04-08T06:27:13;30.10;;;16.60;;
68379;SDS011;57711;53.196;19.638;2023-04-08T06:29:41;24.50;;;14.20;;
68379;SDS011;57711;53.196;19.638;2023-04-08T06:32:09;29.00;;;16.00;;
68379;SDS011;57711;53.196;19.638;2023-04-08T06:34:37;28.00;;;15.70;;
68379;SDS011;57711;53.196;19.638;2023-04-08T06:37:04;19.20;;;11.80;;
68379;SDS011;57711;53.196;19.638;2023-04-08T06:39:32;19.40;;;11.50;;
68379;SDS011;57711;53.196;19.638;2023-04-08T06:41:59;21.90;;;12.40;;
68379;SDS011;57711;53.196;19.638;2023-04-08T06:44:43;21.40;;;13.50;;
68379;SDS011;57711;53.196;19.638;2023-04-08T06:47:10;38.20;;;22.20;;
68379;SDS011;57711;53.196;19.638;2023-04-08T06:49:37;35.10;;;20.80;;
68379;SDS011;57711;53.196;19.638;2023-04-08T06:52:04;18.10;;;12.60;;
68379;SDS011;57711;53.196;19.638;2023-04-08T06:54:32;30.40;;;15.10;;
68379;SDS011;57711;53.196;19.638;2023-04-08T06:56:59;27.90;;;15.20;;
68379;SDS011;57711;53.196;19.638;2023-04-08T06:59:27;31.60;;;16.20;;
68379;SDS011;57711;53.196;19.638;2023-04-08T07:01:54;33.50;;;17.60;;
68379;SDS011;57711;53.196;19.638;2023-04-08T07:04:21;23.20;;;14.40;;
68379;SDS011;57711;53.196;19.638;2023-04-08T07:06:49;37.30;;;21.30;;
68379;SDS011;57711;53.196;19.638;2023-04-08T07:09:16;23.20;;;14.80;;
68379;SDS011;57711;53.196;19.638;2023-04-08T07:11:43;50.80;;;26.10;;
68379;SDS011;57711;53.196;19.638;2023-04-08T07:14:10;31.00;;;17.90;;
68379;SDS011;57711;53.196;19.638;2023-04-08T07:16:37;27.00;;;15.60;;
68379;SDS011;57711;53.196;19.638;2023-04-08T07:19:05;32.30;;;20.00;;
68379;SDS011;57711;53.196;19.638;2023-04-08T07:21:32;23.60;;;13.70;;
68379;SDS011;57711;53.196;19.638;2023-04-08T07:23:59;34.30;;;23.30;;
68379;SDS011;57711;53.196;19.638;2023-04-08T07:26:26;40.80;;;22.40;;
68379;SDS011;57711;53.196;19.638;2023-04-08T07:28:54;29.40;;;20.10;;
68379;SDS011;57711;53.196;19.638;2023-04-08T07:31:21;29.80;;;20.60;;
68379;SDS011;57711;53.196;19.638;2023-04-08T07:33:48;30.90;;;18.30;;
68379;SDS011;57711;53.196;19.638;2023-04-08T07:36:16;25.70;;;15.30;;
68379;SDS011;57711;53.196;19.638;2023-04-08T07:38:44;24.00;;;14.80;;
68379;SDS011;57711;53.196;19.638;2023-04-08T07:41:11;22.30;;;13.50;;
68379;SDS011;57711;53.196;19.638;2023-04-08T07:43:39;25.80;;;16.30;;
68379;SDS011;57711;53.196;19.638;2023-04-08T07:46:06;22.60;;;15.40;;
68379;SDS011;57711;53.196;19.638;2023-04-08T07:48:33;21.60;;;15.10;;
68379;SDS011;57711;53.196;19.638;2023-04-08T07:51:04;19.90;;;14.20;;
68379;SDS011;57711;53.196;19.638;2023-04-08T07:53:37;21.80;;;15.60;;
68379;SDS011;57711;53.196;19.638;2023-04-08T07:56:13;29.80;;;18.50;;
68379;SDS011;57711;53.196;19.638;2023-04-08T07:58:41;28.30;;;17.10;;
68379;SDS011;57711;53.196;19.638;2023-04-08T08:01:18;29.60;;;17.20;;
68379;SDS011;57711;53.196;19.638;2023-04-08T08:03:50;28.60;;;17.30;;
68379;SDS011;57711;53.196;19.638;2023-04-08T08:06:19;21.00;;;13.00;;
68379;SDS011;57711;53.196;19.638;2023-04-08T08:08:47;62.70;;;29.80;;
68379;SDS011;57711;53.196;19.638;2023-04-08T08:11:14;39.40;;;18.30;;
68379;SDS011;57711;53.196;19.638;2023-04-08T08:13:41;31.40;;;15.20;;
68379;SDS011;57711;53.196;19.638;2023-04-08T08:16:08;38.00;;;19.90;;
68379;SDS011;57711;53.196;19.638;2023-04-08T08:18:38;52.10;;;28.30;;
68379;SDS011;57711;53.196;19.638;2023-04-08T08:21:06;25.80;;;16.00;;
68379;SDS011;57711;53.196;19.638;2023-04-08T08:23:34;21.90;;;14.90;;
68379;SDS011;57711;53.196;19.638;2023-04-08T08:26:08;22.80;;;15.80;;
68379;SDS011;57711;53.196;19.638;2023-04-08T08:28:36;19.40;;;14.20;;
68379;SDS011;57711;53.196;19.638;2023-04-08T08:31:04;23.20;;;15.10;;
68379;SDS011;57711;53.196;19.638;2023-04-08T08:33:32;20.50;;;13.10;;
68379;SDS011;57711;53.196;19.638;2023-04-08T08:35:59;22.20;;;13.60;;
68379;SDS011;57711;53.196;19.638;2023-04-08T08:38:27;21.60;;;14.60;;
68379;SDS011;57711;53.196;19.638;2023-04-08T08:40:58;22.50;;;13.90;;
68379;SDS011;57711;53.196;19.638;2023-04-08T08:43:27;22.90;;;14.20;;
68379;SDS011;57711;53.196;19.638;2023-04-08T08:45:55;22.70;;;14.10;;
68379;SDS011;57711;53.196;19.638;2023-04-08T08:48:22;20.20;;;14.00;;
68379;SDS011;57711;53.196;19.638;2023-04-08T08:50:49;18.10;;;13.20;;
68379;SDS011;57711;53.196;19.638;2023-04-08T08:53:16;20.00;;;14.70;;
68379;SDS011;57711;53.196;19.638;2023-04-08T08:55:45;21.70;;;14.10;;
68379;SDS011;57711;53.196;19.638;2023-04-08T08:58:32;23.30;;;13.80;;
68379;SDS011;57711;53.196;19.638;2023-04-08T09:01:00;26.50;;;15.10;;
68379;SDS011;57711;53.196;19.638;2023-04-08T09:03:27;26.50;;;14.60;;
68379;SDS011;57711;53.196;19.638;2023-04-08T09:05:59;21.60;;;15.10;;
68379;SDS011;57711;53.196;19.638;2023-04-08T09:11:14;20.30;;;13.30;;
68379;SDS011;57711;53.196;19.638;2023-04-08T09:13:42;18.70;;;13.90;;
68379;SDS011;57711;53.196;19.638;2023-04-08T09:16:11;18.50;;;13.60;;
68379;SDS011;57711;53.196;19.638;2023-04-08T09:18:40;18.60;;;13.90;;
68379;SDS011;57711;53.196;19.638;2023-04-08T09:21:10;29.30;;;19.30;;
68379;SDS011;57711;53.196;19.638;2023-04-08T09:23:39;20.90;;;14.10;;
68379;SDS011;57711;53.196;19.638;2023-04-08T09:26:09;17.70;;;13.50;;
68379;SDS011;57711;53.196;19.638;2023-04-08T09:31:24;20.80;;;14.00;;
68379;SDS011;57711;53.196;19.638;2023-04-08T09:33:54;24.40;;;16.20;;
68379;SDS011;57711;53.196;19.638;2023-04-08T09:36:25;20.10;;;14.00;;
68379;SDS011;57711;53.196;19.638;2023-04-08T09:38:53;26.90;;;18.30;;
68379;SDS011;57711;53.196;19.638;2023-04-08T09:41:21;20.90;;;14.50;;
68379;SDS011;57711;53.196;19.638;2023-04-08T09:43:53;17.10;;;12.80;;
68379;SDS011;57711;53.196;19.638;2023-04-08T09:46:25;19.40;;;14.30;;
68379;SDS011;57711;53.196;19.638;2023-04-08T09:49:14;29.00;;;16.90;;
68379;SDS011;57711;53.196;19.638;2023-04-08T09:51:49;17.70;;;13.90;;
68379;SDS011;57711;53.196;19.638;2023-04-08T09:54:23;18.20;;;12.40;;
68379;SDS011;57711;53.196;19.638;2023-04-08T09:57:13;19.40;;;13.90;;
68379;SDS011;57711;53.196;19.638;2023-04-08T09:59:44;19.30;;;13.50;;
68379;SDS011;57711;53.196;19.638;2023-04-08T10:02:18;16.80;;;13.60;;
68379;SDS011;57711;53.196;19.638;2023-04-08T10:04:57;22.30;;;13.80;;
68379;SDS011;57711;53.196;19.638;2023-04-08T10:07:26;21.30;;;14.70;;
68379;SDS011;57711;53.196;19.638;2023-04-08T10:09:53;21.50;;;13.20;;
68379;SDS011;57711;53.196;19.638;2023-04-08T10:12:20;21.80;;;15.70;;
68379;SDS011;57711;53.196;19.638;2023-04-08T10:17:54;17.80;;;13.30;;
68379;SDS011;57711;53.196;19.638;2023-04-08T10:23:05;17.80;;;12.80;;
68379;SDS011;57711;53.196;19.638;2023-04-08T10:25:37;28.80;;;14.50;;
68379;SDS011;57711;53.196;19.638;2023-04-08T10:30:41;41.70;;;25.90;;
68379;SDS011;57711;53.196;19.638;2023-04-08T10:33:13;41.00;;;27.60;;
68379;SDS011;57711;53.196;19.638;2023-04-08T10:35:43;24.30;;;15.40;;
68379;SDS011;57711;53.196;19.638;2023-04-08T10:38:14;25.40;;;19.40;;
68379;SDS011;57711;53.196;19.638;2023-04-08T10:40:43;40.90;;;26.30;;
68379;SDS011;57711;53.196;19.638;2023-04-08T10:43:12;30.70;;;17.90;;
68379;SDS011;57711;53.196;19.638;2023-04-08T10:45:40;22.70;;;14.10;;
68379;SDS011;57711;53.196;19.638;2023-04-08T10:48:18;17.90;;;14.10;;
68379;SDS011;57711;53.196;19.638;2023-04-08T10:50:55;19.90;;;14.20;;
68379;SDS011;57711;53.196;19.638;2023-04-08T10:56:02;18.30;;;13.60;;
68379;SDS011;57711;53.196;19.638;2023-04-08T10:58:29;22.80;;;16.00;;
68379;SDS011;57711;53.196;19.638;2023-04-08T11:01:02;21.60;;;15.50;;
68379;SDS011;57711;53.196;19.638;2023-04-08T11:03:31;23.10;;;15.40;;
68379;SDS011;57711;53.196;19.638;2023-04-08T11:06:03;50.30;;;27.10;;
68379;SDS011;57711;53.196;19.638;2023-04-08T11:08:31;23.10;;;16.20;;
68379;SDS011;57711;53.196;19.638;2023-04-08T11:10:59;21.50;;;13.70;;
68379;SDS011;57711;53.196;19.638;2023-04-08T11:13:27;22.60;;;16.00;;
68379;SDS011;57711;53.196;19.638;2023-04-08T11:15:55;16.50;;;13.70;;
68379;SDS011;57711;53.196;19.638;2023-04-08T11:18:24;17.10;;;12.20;;
68379;SDS011;57711;53.196;19.638;2023-04-08T11:20:52;16.00;;;12.10;;
68379;SDS011;57711;53.196;19.638;2023-04-08T11:23:19;17.40;;;13.30;;
68379;SDS011;57711;53.196;19.638;2023-04-08T11:25:48;17.90;;;14.00;;
68379;SDS011;57711;53.196;19.638;2023-04-08T11:28:16;17.70;;;13.80;;
68379;SDS011;57711;53.196;19.638;2023-04-08T11:30:44;18.40;;;14.20;;
68379;SDS011;57711;53.196;19.638;2023-04-08T11:33:11;20.10;;;15.30;;
68379;SDS011;57711;53.196;19.638;2023-04-08T11:35:39;19.60;;;14.60;;
68379;SDS011;57711;53.196;19.638;2023-04-08T11:38:08;19.00;;;13.40;;
68379;SDS011;57711;53.196;19.638;2023-04-08T11:40:36;18.40;;;14.00;;
68379;SDS011;57711;53.196;19.638;2023-04-08T11:43:10;17.20;;;12.80;;
68379;SDS011;57711;53.196;19.638;2023-04-08T11:45:41;23.50;;;14.50;;
68379;SDS011;57711;53.196;19.638;2023-04-08T11:48:11;17.80;;;13.80;;
68379;SDS011;57711;53.196;19.638;2023-04-08T11:50:40;17.50;;;13.70;;
68379;SDS011;57711;53.196;19.638;2023-04-08T11:53:20;16.80;;;12.80;;
68379;SDS011;57711;53.196;19.638;2023-04-08T11:55:50;19.20;;;13.80;;
68379;SDS011;57711;53.196;19.638;2023-04-08T11:58:18;23.20;;;12.90;;
68379;SDS011;57711;53.196;19.638;2023-04-08T12:00:45;24.10;;;16.30;;
68379;SDS011;57711;53.196;19.638;2023-04-08T12:03:12;26.50;;;17.20;;
68379;SDS011;57711;53.196;19.638;2023-04-08T12:05:39;16.80;;;13.20;;
68379;SDS011;57711;53.196;19.638;2023-04-08T12:08:07;21.40;;;14.00;;
68379;SDS011;57711;53.196;19.638;2023-04-08T12:10:34;28.80;;;16.70;;
68379;SDS011;57711;53.196;19.638;2023-04-08T12:13:01;24.50;;;16.80;;
68379;SDS011;57711;53.196;19.638;2023-04-08T12:15:28;26.20;;;16.90;;
68379;SDS011;57711;53.196;19.638;2023-04-08T12:17:55;23.10;;;15.60;;
68379;SDS011;57711;53.196;19.638;2023-04-08T12:20:22;20.10;;;14.20;;
68379;SDS011;57711;53.196;19.638;2023-04-08T12:22:49;15.60;;;12.10;;
68379;SDS011;57711;53.196;19.638;2023-04-08T12:25:17;23.40;;;15.20;;
68379;SDS011;57711;53.196;19.638;2023-04-08T12:27:44;20.60;;;13.90;;
68379;SDS011;57711;53.196;19.638;2023-04-08T12:30:11;20.40;;;13.80;;
68379;SDS011;57711;53.196;19.638;2023-04-08T12:32:41;74.20;;;48.90;;
68379;SDS011;57711;53.196;19.638;2023-04-08T12:35:11;41.00;;;28.10;;
68379;SDS011;57711;53.196;19.638;2023-04-08T12:37:39;26.70;;;15.60;;
68379;SDS011;57711;53.196;19.638;2023-04-08T12:40:07;24.40;;;14.90;;
68379;SDS011;57711;53.196;19.638;2023-04-08T12:42:34;17.30;;;12.60;;
68379;SDS011;57711;53.196;19.638;2023-04-08T12:45:01;13.90;;;10.60;;
68379;SDS011;57711;53.196;19.638;2023-04-08T12:47:28;20.90;;;13.90;;
68379;SDS011;57711;53.196;19.638;2023-04-08T12:49:56;24.40;;;13.20;;
68379;SDS011;57711;53.196;19.638;2023-04-08T12:52:23;22.40;;;14.20;;
68379;SDS011;57711;53.196;19.638;2023-04-08T12:54:50;28.40;;;17.80;;
68379;SDS011;57711;53.196;19.638;2023-04-08T12:57:17;33.90;;;20.00;;
68379;SDS011;57711;53.196;19.638;2023-04-08T12:59:44;33.80;;;18.80;;
68379;SDS011;57711;53.196;19.638;2023-04-08T13:02:11;31.40;;;15.50;;
68379;SDS011;57711;53.196;19.638;2023-04-08T13:04:39;22.40;;;14.00;;
68379;SDS011;57711;53.196;19.638;2023-04-08T13:07:06;30.10;;;15.10;;
68379;SDS011;57711;53.196;19.638;2023-04-08T13:09:33;35.10;;;19.60;;
68379;SDS011;57711;53.196;19.638;2023-04-08T13:12:01;29.10;;;18.70;;
68379;SDS011;57711;53.196;19.638;2023-04-08T13:14:31;27.40;;;18.20;;
68379;SDS011;57711;53.196;19.638;2023-04-08T13:16:58;43.00;;;24.20;;
68379;SDS011;57711;53.196;19.638;2023-04-08T13:19:26;35.80;;;20.40;;
68379;SDS011;57711;53.196;19.638;2023-04-08T13:21:53;23.10;;;14.30;;
68379;SDS011;57711;53.196;19.638;2023-04-08T13:24:20;16.00;;;11.30;;
68379;SDS011;57711;53.196;19.638;2023-04-08T13:26:47;15.00;;;10.70;;
68379;SDS011;57711;53.196;19.638;2023-04-08T13:29:15;15.20;;;12.00;;
68379;SDS011;57711;53.196;19.638;2023-04-08T13:31:42;14.30;;;9.40;;
68379;SDS011;57711;53.196;19.638;2023-04-08T13:34:11;25.90;;;15.80;;
68379;SDS011;57711;53.196;19.638;2023-04-08T13:36:38;27.30;;;18.60;;
68379;SDS011;57711;53.196;19.638;2023-04-08T13:39:06;26.40;;;17.20;;
68379;SDS011;57711;53.196;19.638;2023-04-08T13:41:33;25.50;;;15.50;;
68379;SDS011;57711;53.196;19.638;2023-04-08T13:44:00;21.20;;;15.20;;
68379;SDS011;57711;53.196;19.638;2023-04-08T13:46:27;25.90;;;17.00;;
68379;SDS011;57711;53.196;19.638;2023-04-08T13:48:55;21.40;;;15.50;;
68379;SDS011;57711;53.196;19.638;2023-04-08T13:51:28;12.50;;;10.20;;
68379;SDS011;57711;53.196;19.638;2023-04-08T13:53:55;39.30;;;25.70;;
68379;SDS011;57711;53.196;19.638;2023-04-08T13:56:22;16.70;;;12.60;;
68379;SDS011;57711;53.196;19.638;2023-04-08T13:58:49;13.40;;;9.80;;
68379;SDS011;57711;53.196;19.638;2023-04-08T14:01:23;12.80;;;10.00;;
68379;SDS011;57711;53.196;19.638;2023-04-08T14:03:50;25.20;;;15.30;;
68379;SDS011;57711;53.196;19.638;2023-04-08T14:06:17;35.70;;;18.90;;
68379;SDS011;57711;53.196;19.638;2023-04-08T14:08:44;35.70;;;19.70;;
68379;SDS011;57711;53.196;19.638;2023-04-08T14:11:12;22.50;;;11.80;;
68379;SDS011;57711;53.196;19.638;2023-04-08T14:13:39;18.00;;;12.00;;
68379;SDS011;57711;53.196;19.638;2023-04-08T14:16:06;20.10;;;11.60;;
68379;SDS011;57711;53.196;19.638;2023-04-08T14:18:33;23.10;;;14.70;;
68379;SDS011;57711;53.196;19.638;2023-04-08T14:21:00;23.50;;;13.70;;
68379;SDS011;57711;53.196;19.638;2023-04-08T14:23:28;58.20;;;29.00;;
68379;SDS011;57711;53.196;19.638;2023-04-08T14:25:55;35.20;;;21.50;;
68379;SDS011;57711;53.196;19.638;2023-04-08T14:28:22;55.30;;;23.60;;
68379;SDS011;57711;53.196;19.638;2023-04-08T14:30:49;20.80;;;12.80;;
68379;SDS011;57711;53.196;19.638;2023-04-08T14:33:16;30.90;;;15.50;;
68379;SDS011;57711;53.196;19.638;2023-04-08T14:35:44;33.10;;;17.30;;